createdAt,value
2023-02-09T00:01:53.353Z,84.40
2023-02-09T00:04:38.694Z,84.70
2023-02-09T00:07:24.114Z,84.30
2023-02-09T00:10:10.052Z,85.40
2023-02-09T00:13:14.021Z,84.10
2023-02-09T00:16:04.335Z,84.60
2023-02-09T00:18:49.800Z,85.20
2023-02-09T00:21:35.518Z,84.20
2023-02-09T00:24:21.071Z,84.20
2023-02-09T00:27:06.152Z,84.90
2023-02-09T00:29:51.617Z,84.40
2023-02-09T00:32:37.109Z,85.30
2023-02-09T00:35:22.724Z,84.30
2023-02-09T00:40:54.577Z,84.50
2023-02-09T00:43:40.330Z,84.50
2023-02-09T00:46:25.474Z,84.10
2023-02-09T00:49:10.717Z,85.30
2023-02-09T00:51:56.700Z,84.50
2023-02-09T01:05:45.769Z,84.30
2023-02-09T01:08:30.997Z,85.40
2023-02-09T01:11:16.955Z,85.50
2023-02-09T01:14:04.225Z,86.10
2023-02-09T01:16:49.191Z,85.60
2023-02-09T01:19:35.466Z,86.50
2023-02-09T01:22:21.430Z,86.00
2023-02-09T01:25:08.635Z,86.20
2023-02-09T01:27:53.985Z,86.40
2023-02-09T01:30:39.446Z,86.50
2023-02-09T01:33:25.064Z,86.50
2023-02-09T01:52:49.629Z,85.90
2023-02-09T01:55:47.315Z,86.40
2023-02-09T01:58:33.248Z,86.50
2023-02-09T02:01:18.660Z,86.00
2023-02-09T02:04:04.720Z,85.90
2023-02-09T02:06:52.248Z,86.40
2023-02-09T02:09:37.637Z,86.10
2023-02-09T02:12:23.943Z,87.70
2023-02-09T02:15:09.419Z,86.60
2023-02-09T02:18:09.560Z,86.10
2023-02-09T02:24:29.725Z,86.00
2023-02-09T02:27:18.076Z,86.80
2023-02-09T02:30:18.168Z,86.60
2023-02-09T02:33:29.328Z,87.10
2023-02-09T02:36:28.486Z,87.40
2023-02-09T02:39:25.873Z,87.00
2023-02-09T02:42:45.009Z,87.10
2023-02-09T02:45:40.065Z,86.60
2023-02-09T02:48:53.743Z,86.80
2023-02-09T02:51:48.460Z,87.00
2023-02-09T03:17:41.625Z,86.40
2023-02-09T03:20:43.619Z,85.50
2023-02-09T03:26:25.192Z,86.00
2023-02-09T03:29:12.698Z,87.30
2023-02-09T03:31:58.707Z,87.20
2023-02-09T03:34:45.165Z,88.00
2023-02-09T03:37:30.490Z,88.20
2023-02-09T03:40:15.925Z,88.30
2023-02-09T03:43:01.403Z,88.50
2023-02-09T03:45:46.600Z,87.10
2023-02-09T03:48:31.927Z,86.90
2023-02-09T03:51:17.284Z,86.60
2023-02-09T05:56:04.256Z,86.00
2023-02-09T05:58:49.645Z,88.00
2023-02-09T06:01:35.290Z,88.40
2023-02-09T06:04:20.594Z,88.20
2023-02-09T06:07:06.004Z,88.20
2023-02-09T06:09:51.281Z,87.80
2023-02-09T06:12:36.569Z,88.80
2023-02-09T06:15:22.169Z,88.20
2023-02-09T06:18:07.496Z,88.90
2023-02-09T06:20:54.059Z,88.70
2023-02-09T06:23:39.928Z,88.10
2023-02-09T06:26:25.087Z,90.50
2023-02-09T06:29:10.697Z,90.00
2023-02-09T06:31:55.793Z,89.90
2023-02-09T06:34:41.075Z,90.10
2023-02-09T06:37:26.339Z,90.00
2023-02-09T06:40:12.153Z,89.50
2023-02-09T06:42:57.295Z,89.80
2023-02-09T06:45:42.705Z,89.60
2023-02-09T06:48:28.169Z,88.40
2023-02-09T06:51:15.183Z,88.40
2023-02-09T06:54:00.562Z,89.00
2023-02-09T07:07:49.508Z,88.20
2023-02-09T08:17:29.362Z,89.10
2023-02-09T08:20:20.278Z,92.70
2023-02-09T08:23:30.050Z,92.50
2023-02-09T08:26:15.260Z,92.10
2023-02-09T08:29:00.792Z,92.50
2023-02-09T08:31:46.196Z,92.50
2023-02-09T08:34:31.415Z,92.30
2023-02-09T08:37:16.809Z,92.30
2023-02-09T08:40:02.006Z,92.20
2023-02-09T08:42:47.682Z,92.80
2023-02-09T08:45:38.926Z,92.40
2023-02-09T08:48:24.512Z,92.30
2023-02-09T08:51:13.020Z,92.20
2023-02-09T08:53:58.025Z,92.20
2023-02-09T08:56:44.156Z,92.40
2023-02-09T08:59:29.324Z,92.30
2023-02-09T09:02:14.584Z,92.20
2023-02-09T09:04:59.947Z,92.10
2023-02-09T09:07:45.402Z,92.30
2023-02-09T09:10:31.058Z,92.20
2023-02-09T09:13:16.352Z,92.40
2023-02-09T09:16:03.680Z,92.50
2023-02-09T09:21:36.119Z,92.50
2023-02-09T09:24:23.181Z,92.30
2023-02-09T09:27:10.343Z,92.50
2023-02-09T09:29:55.900Z,92.40
2023-02-09T09:32:41.376Z,92.30
2023-02-09T09:35:27.757Z,91.90
2023-02-09T09:38:12.914Z,90.90
2023-02-09T09:40:58.308Z,88.80
2023-02-09T09:43:43.902Z,90.20
2023-02-09T09:46:51.445Z,89.70
2023-02-09T09:49:37.867Z,88.50
2023-02-09T09:52:36.153Z,87.80
2023-02-09T09:55:32.338Z,88.00
2023-02-09T09:58:18.761Z,87.70
2023-02-09T10:01:04.485Z,87.40
2023-02-09T10:03:49.792Z,87.10
2023-02-09T10:06:35.080Z,87.30
2023-02-09T10:09:39.129Z,85.80
2023-02-09T10:12:37.955Z,84.70
2023-02-09T10:15:34.730Z,85.30
2023-02-09T10:18:25.270Z,86.10
2023-02-09T10:21:15.928Z,83.80
2023-02-09T10:24:01.048Z,83.40
2023-02-09T10:27:06.148Z,83.40
2023-02-09T10:29:51.772Z,80.40
2023-02-09T10:32:41.006Z,79.90
2023-02-09T10:35:41.289Z,79.20
2023-02-09T10:38:33.135Z,80.40
2023-02-09T10:41:21.039Z,79.80
2023-02-09T10:44:26.473Z,79.10
2023-02-09T10:47:28.898Z,79.60
2023-02-09T10:50:18.188Z,79.70
2023-02-09T10:53:19.199Z,79.40
2023-02-09T10:56:20.548Z,79.80
2023-02-09T10:59:20.732Z,78.70
2023-02-09T11:02:35.997Z,79.00
2023-02-09T11:05:21.264Z,79.10
2023-02-09T11:08:20.678Z,79.10
2023-02-09T11:11:11.119Z,77.90
2023-02-09T11:13:56.714Z,77.60
2023-02-09T11:16:46.230Z,77.30
2023-02-09T11:19:55.766Z,78.40
2023-02-09T11:23:21.241Z,76.50
2023-02-09T11:26:25.719Z,75.90
2023-02-09T11:29:30.282Z,76.40
2023-02-09T11:32:25.237Z,77.00
2023-02-09T11:35:12.689Z,75.30
2023-02-09T11:38:05.344Z,75.50
2023-02-09T11:40:55.612Z,75.70
2023-02-09T11:43:43.206Z,75.50
2023-02-09T11:46:33.280Z,75.80
2023-02-09T11:49:21.278Z,75.10
2023-02-09T11:52:09.275Z,74.30
2023-02-09T11:54:59.540Z,74.70
2023-02-09T11:57:50.423Z,73.90
2023-02-09T12:00:56.011Z,74.60
2023-02-09T12:04:21.871Z,74.90
2023-02-09T12:07:20.894Z,73.70
2023-02-09T12:10:29.691Z,75.90
2023-02-09T12:13:30.196Z,74.10
2023-02-09T12:16:19.729Z,74.10
2023-02-09T12:19:06.509Z,74.80
2023-02-09T12:21:51.561Z,74.60
2023-02-09T12:24:40.098Z,74.20
2023-02-09T12:27:26.852Z,74.50
2023-02-09T12:30:40.154Z,73.50
2023-02-09T12:33:25.746Z,74.00
2023-02-09T12:36:12.539Z,73.10
2023-02-09T12:39:07.891Z,72.90
2023-02-09T12:41:53.465Z,72.50
2023-02-09T12:44:54.282Z,73.70
2023-02-09T12:47:57.633Z,72.40
2023-02-09T12:50:42.738Z,73.70
2023-02-09T12:53:40.206Z,73.30
2023-02-09T12:56:28.845Z,73.20
2023-02-09T12:59:17.148Z,71.60
2023-02-09T13:02:08.362Z,72.30
2023-02-09T13:05:17.010Z,72.80
2023-02-09T13:08:09.065Z,73.20
2023-02-09T13:11:14.389Z,73.20
2023-02-09T13:14:04.253Z,71.50
2023-02-09T13:17:20.195Z,71.90
2023-02-09T13:20:27.294Z,71.20
2023-02-09T13:23:40.980Z,71.40
2023-02-09T13:26:30.423Z,71.90
2023-02-09T13:29:21.383Z,71.50
2023-02-09T13:32:16.497Z,72.00
2023-02-09T13:35:12.631Z,70.90
2023-02-09T13:38:15.841Z,71.70
2023-02-09T13:41:02.036Z,71.80
2023-02-09T13:43:47.613Z,70.70
2023-02-09T13:46:35.141Z,71.90
2023-02-09T13:49:23.796Z,71.00
2023-02-09T13:52:19.883Z,71.20
2023-02-09T13:55:21.446Z,70.10
2023-02-09T13:58:08.923Z,71.50
2023-02-09T14:00:58.388Z,71.90
2023-02-09T14:03:57.943Z,70.80
2023-02-09T14:06:52.166Z,71.50
2023-02-09T14:09:46.820Z,70.70
2023-02-09T14:12:59.696Z,71.10
2023-02-09T14:16:06.876Z,71.40
2023-02-09T14:19:00.442Z,70.40
2023-02-09T14:21:46.355Z,71.30
2023-02-09T14:24:44.735Z,71.80
2023-02-09T14:27:32.965Z,73.30
2023-02-09T14:30:27.146Z,83.40
2023-02-09T14:33:22.143Z,70.10
2023-02-09T14:36:28.909Z,72.00
2023-02-09T14:39:17.027Z,70.20
2023-02-09T14:42:08.551Z,70.70
2023-02-09T14:44:56.167Z,71.80
2023-02-09T14:47:43.924Z,71.30
2023-02-09T14:50:29.521Z,70.00
2023-02-09T14:53:16.616Z,70.30
2023-02-09T14:56:02.045Z,70.20
2023-02-09T14:58:47.543Z,71.50
2023-02-09T15:01:33.117Z,70.80
2023-02-09T15:04:18.828Z,70.60
2023-02-09T15:07:04.081Z,70.80
2023-02-09T15:09:49.748Z,69.70
2023-02-09T15:12:34.870Z,70.20
2023-02-09T15:15:22.154Z,70.10
2023-02-09T15:18:14.509Z,71.50
2023-02-09T15:20:59.962Z,71.10
2023-02-09T15:23:45.371Z,70.20
2023-02-09T15:26:34.601Z,70.70
2023-02-09T15:29:20.211Z,71.40
2023-02-09T15:32:16.809Z,71.20
2023-02-09T15:35:02.213Z,71.70
2023-02-09T15:37:52.246Z,71.20
2023-02-09T15:41:00.699Z,71.00
2023-02-09T15:44:04.392Z,71.90
2023-02-09T15:47:08.164Z,71.90
2023-02-09T15:49:53.594Z,72.00
2023-02-09T15:52:39.071Z,72.00
2023-02-09T15:55:26.591Z,71.60
2023-02-09T15:58:18.945Z,72.80
2023-02-09T16:01:04.982Z,73.20
2023-02-09T16:03:50.209Z,73.70
2023-02-09T16:06:35.744Z,73.30
2023-02-09T16:09:27.695Z,73.80
2023-02-09T16:12:12.879Z,74.20
2023-02-09T16:14:58.158Z,74.80
2023-02-09T16:17:43.770Z,74.60
2023-02-09T16:20:29.109Z,75.30
2023-02-09T16:23:21.030Z,76.00
2023-02-09T16:26:06.451Z,76.40
2023-02-09T16:28:52.438Z,76.80
2023-02-09T16:31:37.824Z,77.10
2023-02-09T16:34:23.049Z,77.30
2023-02-09T16:37:08.383Z,77.10
2023-02-09T16:39:55.304Z,77.60
2023-02-09T16:42:40.612Z,77.30
2023-02-09T16:45:30.423Z,77.70
2023-02-09T16:48:30.177Z,77.80
2023-02-09T16:51:15.850Z,77.90
2023-02-09T16:54:01.209Z,78.80
2023-02-09T16:56:53.988Z,78.30
2023-02-09T16:59:40.053Z,78.60
2023-02-09T17:02:36.614Z,79.40
2023-02-09T17:05:34.966Z,78.90
2023-02-09T17:08:32.032Z,79.20
2023-02-09T17:11:21.993Z,79.30
2023-02-09T17:14:07.371Z,79.40
2023-02-09T17:16:53.696Z,79.90
2023-02-09T17:19:47.246Z,80.00
2023-02-09T17:22:33.437Z,80.10
2023-02-09T17:25:20.946Z,80.60
2023-02-09T17:28:06.062Z,81.00
2023-02-09T17:30:56.446Z,81.00
2023-02-09T17:33:41.904Z,81.00
2023-02-09T17:36:31.947Z,80.70
2023-02-09T17:39:18.947Z,81.20
2023-02-09T17:42:04.475Z,80.90
2023-02-09T17:44:50.759Z,81.20
2023-02-09T17:47:36.105Z,80.80
2023-02-09T17:50:22.726Z,81.00
2023-02-09T17:53:14.921Z,80.70
2023-02-09T17:56:00.364Z,80.90
2023-02-09T17:58:47.674Z,81.10
2023-02-09T18:01:33.285Z,81.50
2023-02-09T18:04:22.108Z,82.00
2023-02-09T18:07:07.144Z,83.20
2023-02-09T18:09:54.342Z,81.40
2023-02-09T18:12:40.075Z,81.50
2023-02-09T18:15:28.725Z,82.00
2023-02-09T18:18:14.363Z,82.70
2023-02-09T18:21:01.579Z,82.00
2023-02-09T18:23:47.115Z,82.80
2023-02-09T18:26:33.583Z,84.60
2023-02-09T18:29:22.679Z,83.00
2023-02-09T18:32:10.427Z,82.80
2023-02-09T18:34:56.085Z,82.90
2023-02-09T18:37:41.485Z,83.60
2023-02-09T18:40:26.915Z,84.20
2023-02-09T18:43:14.585Z,84.40
2023-02-09T18:46:01.027Z,83.90
2023-02-09T18:48:46.834Z,83.30
2023-02-09T18:51:32.477Z,83.40
2023-02-09T18:54:18.175Z,83.90
2023-02-09T18:57:03.199Z,83.80
2023-02-09T18:59:48.713Z,84.10
2023-02-09T19:02:34.236Z,83.80
2023-02-09T19:05:19.849Z,84.00
2023-02-09T19:08:07.281Z,84.10
2023-02-09T19:10:52.801Z,84.80
2023-02-09T19:13:38.312Z,84.50
2023-02-09T19:16:23.745Z,85.50
2023-02-09T19:19:09.391Z,85.50
2023-02-09T19:21:56.745Z,85.40
2023-02-09T19:24:42.902Z,85.20
2023-02-09T19:27:29.580Z,85.40
2023-02-09T19:30:21.336Z,85.80
2023-02-09T19:33:06.206Z,85.40
2023-02-09T19:35:59.355Z,85.30
2023-02-09T19:38:44.462Z,85.40
2023-02-09T19:41:30.074Z,84.70
2023-02-09T19:44:15.779Z,84.90
2023-02-09T19:47:01.313Z,84.70
2023-02-09T19:49:46.472Z,85.00
2023-02-09T19:52:31.865Z,86.30
2023-02-09T19:55:17.107Z,85.20
2023-02-09T19:58:02.593Z,85.50
2023-02-09T20:00:49.402Z,85.50
2023-02-09T20:03:36.195Z,86.80
2023-02-09T20:06:21.344Z,84.90
2023-02-09T20:09:06.897Z,86.30
2023-02-09T20:11:52.100Z,85.50
2023-02-09T20:14:38.122Z,85.40
2023-02-09T20:17:23.135Z,84.90
2023-02-09T20:20:08.933Z,84.60
2023-02-09T20:22:54.116Z,84.70
2023-02-09T20:25:43.381Z,86.50
2023-02-09T20:28:28.646Z,86.00
2023-02-09T20:31:21.598Z,86.00
2023-02-09T20:34:10.030Z,86.20
2023-02-09T20:36:57.288Z,86.90
2023-02-09T20:39:42.746Z,85.70
2023-02-09T20:42:46.811Z,85.70
2023-02-09T20:45:50.774Z,86.90
2023-02-09T20:48:36.043Z,86.30
2023-02-09T20:51:21.639Z,87.00
2023-02-09T20:54:07.102Z,87.40
2023-02-09T20:56:52.322Z,86.30
2023-02-09T20:59:37.719Z,86.10
2023-02-09T21:02:23.156Z,86.00
2023-02-09T21:05:08.859Z,87.40
2023-02-09T21:07:54.289Z,85.70
2023-02-09T21:10:40.254Z,85.90
2023-02-09T21:13:25.751Z,86.70
2023-02-09T21:16:15.308Z,87.20
2023-02-09T21:19:00.862Z,87.30
2023-02-09T21:21:45.899Z,88.00
2023-02-09T21:24:31.132Z,87.00
2023-02-09T21:27:16.645Z,87.50
2023-02-09T21:30:02.111Z,87.80
2023-02-09T21:32:47.672Z,87.60
2023-02-09T21:35:33.105Z,86.50
2023-02-09T21:38:18.508Z,86.80
2023-02-09T21:41:48.598Z,88.00
2023-02-09T21:44:36.795Z,87.80
2023-02-09T21:47:30.172Z,87.30
2023-02-09T21:50:15.606Z,87.80
2023-02-09T21:53:01.966Z,87.50
2023-02-09T21:55:47.271Z,88.40
2023-02-09T21:58:32.655Z,88.30
2023-02-09T22:01:18.089Z,88.60
2023-02-09T22:04:04.012Z,87.80
2023-02-09T22:06:49.613Z,88.20
2023-02-09T22:09:34.796Z,87.80
2023-02-09T22:12:20.373Z,87.80
2023-02-09T22:15:06.477Z,88.70
2023-02-09T22:17:51.987Z,88.70
2023-02-09T22:20:41.776Z,88.60
2023-02-09T22:23:27.133Z,87.70
2023-02-09T22:26:13.841Z,88.60
2023-02-09T22:28:59.440Z,88.50
2023-02-09T22:31:45.447Z,88.00
2023-02-09T22:34:30.884Z,87.70
2023-02-09T22:37:16.161Z,86.90
2023-02-09T22:40:01.598Z,87.00
2023-02-09T22:42:47.139Z,88.20
2023-02-09T22:45:32.399Z,88.20
2023-02-09T22:48:17.848Z,88.10
2023-02-09T22:51:03.263Z,88.00
2023-02-09T22:53:48.719Z,88.20
2023-02-09T22:56:34.410Z,88.20
2023-02-09T22:59:19.557Z,87.80
2023-02-09T23:02:05.609Z,88.10
2023-02-09T23:04:51.272Z,88.60
2023-02-09T23:07:37.106Z,88.30
2023-02-09T23:13:08.686Z,87.70
2023-02-09T23:15:54.077Z,88.20
2023-02-09T23:18:40.491Z,88.60
2023-02-09T23:21:32.253Z,89.00
2023-02-09T23:24:21.820Z,88.20
2023-02-09T23:27:07.315Z,88.30
2023-02-09T23:29:55.174Z,88.30
2023-02-09T23:32:40.614Z,88.30
2023-02-09T23:35:26.033Z,87.40
2023-02-09T23:38:11.402Z,87.80
2023-02-09T23:40:56.769Z,88.30
2023-02-09T23:43:42.721Z,88.40
2023-02-09T23:57:32.460Z,87.00
